Wetterdaten: Woche 09.08.10 - 15.08.10 (KW32)
Datum Zeit Temperatur Luftfeuchte Luftdruck Niederschlag Windrichtung Sonnenschein Solar Wind
09.08.2010 00:00 14,0 C 97 % 1017,8 hPa 0,0 l/m N 0,00 h 0 W/m 0,0 km/h (0 Bft)
09.08.2010 01:00 13,0 C 98 % 1017,8 hPa 0,0 l/m N 0,00 h 0 W/m 0,0 km/h (0 Bft)
09.08.2010 02:00 12,4 C 98 % 1017,6 hPa 0,0 l/m N 0,00 h 0 W/m 0,0 km/h (0 Bft)
09.08.2010 03:00 12,1 C 99 % 1017,4 hPa 0,0 l/m N 0,00 h 0 W/m 0,0 km/h (0 Bft)
09.08.2010 04:00 11,9 C 99 % 1017,0 hPa 0,0 l/m N 0,00 h 0 W/m 0,0 km/h (0 Bft)
09.08.2010 05:00 11,7 C 99 % 1016,9 hPa 0,0 l/m N 0,00 h 0 W/m 0,0 km/h (0 Bft)
09.08.2010 06:00 11,3 C 99 % 1017,2 hPa 0,0 l/m N 0,00 h 16 W/m 0,0 km/h (0 Bft)
09.08.2010 07:00 11,8 C 99 % 1017,3 hPa 0,0 l/m N 0,67 h 154 W/m 0,0 km/h (0 Bft)
09.08.2010 08:00 13,8 C 98 % 1017,5 hPa 0,0 l/m N 1,00 h 325 W/m 0,0 km/h (0 Bft)
09.08.2010 09:00 17,1 C 87 % 1017,2 hPa 0,0 l/m N 1,00 h 487 W/m 0,0 km/h (0 Bft)
09.08.2010 10:00 19,3 C 72 % 1016,9 hPa 0,0 l/m SO 1,00 h 714 W/m 5,1 km/h (1 Bft)
09.08.2010 11:00 19,9 C 71 % 1016,6 hPa 0,0 l/m W-NW 0,50 h 567 W/m 3,6 km/h (1 Bft)
09.08.2010 12:00 20,9 C 63 % 1016,2 hPa 0,0 l/m O-SO 0,67 h 755 W/m 1,6 km/h (1 Bft)
09.08.2010 13:00 20,8 C 62 % 1015,8 hPa 0,0 l/m N 0,17 h 362 W/m 1,2 km/h (1 Bft)
09.08.2010 14:00 21,8 C 59 % 1015,2 hPa 0,0 l/m N 0,42 h 550 W/m 3,1 km/h (1 Bft)
09.08.2010 15:00 22,2 C 55 % 1014,7 hPa 0,0 l/m N 0,50 h 459 W/m 2,3 km/h (1 Bft)
09.08.2010 16:00 22,8 C 54 % 1014,3 hPa 0,0 l/m W 0,75 h 520 W/m 0,7 km/h (0 Bft)
09.08.2010 17:00 22,9 C 52 % 1014,0 hPa 0,0 l/m N 0,67 h 353 W/m 1,3 km/h (1 Bft)
09.08.2010 18:00 23,1 C 50 % 1014,0 hPa 0,0 l/m N 0,92 h 273 W/m 0,3 km/h (0 Bft)
09.08.2010 19:00 20,9 C 74 % 1013,9 hPa 0,0 l/m N 0,33 h 83 W/m 0,0 km/h (0 Bft)
09.08.2010 20:00 17,9 C 80 % 1013,8 hPa 0,0 l/m N 0,00 h 13 W/m 0,1 km/h (0 Bft)
09.08.2010 21:00 15,8 C 85 % 1014,3 hPa 0,0 l/m N 0,00 h 0 W/m 0,9 km/h (0 Bft)
09.08.2010 22:00 15,1 C 87 % 1014,7 hPa 0,0 l/m N 0,00 h 0 W/m 1,9 km/h (1 Bft)
09.08.2010 23:00 14,5 C 90 % 1015,0 hPa 0,0 l/m N-NW 0,00 h 0 W/m 2,4 km/h (1 Bft)
10.08.2010 00:00 14,6 C 89 % 1015,0 hPa 0,0 l/m N-NW 0,00 h 0 W/m 8,3 km/h (2 Bft)
10.08.2010 01:00 14,3 C 89 % 1015,0 hPa 0,0 l/m N-NW 0,00 h 0 W/m 6,4 km/h (2 Bft)
10.08.2010 02:00 13,8 C 92 % 1014,9 hPa 0,0 l/m N 0,00 h 0 W/m 1,3 km/h (1 Bft)
10.08.2010 03:00 13,8 C 94 % 1014,8 hPa 0,0 l/m N 0,00 h 0 W/m 0,5 km/h (0 Bft)
10.08.2010 04:00 13,8 C 94 % 1014,6 hPa 0,0 l/m N 0,00 h 0 W/m 0,0 km/h (0 Bft)
10.08.2010 05:00 13,8 C 93 % 1014,8 hPa 0,0 l/m N 0,00 h 0 W/m 0,3 km/h (0 Bft)
10.08.2010 06:00 13,5 C 93 % 1015,0 hPa 0,0 l/m N 0,00 h 22 W/m 0,3 km/h (0 Bft)
10.08.2010 07:00 13,5 C 94 % 1015,1 hPa 0,0 l/m N 0,08 h 73 W/m 0,7 km/h (0 Bft)
10.08.2010 08:00 15,2 C 91 % 1015,2 hPa 0,0 l/m N 0,67 h 248 W/m 0,7 km/h (0 Bft)
10.08.2010 09:00 17,4 C 84 % 1015,4 hPa 0,0 l/m N 0,83 h 479 W/m 1,6 km/h (1 Bft)
10.08.2010 10:00 20,0 C 75 % 1015,3 hPa 0,0 l/m NO 1,00 h 635 W/m 4,3 km/h (1 Bft)
10.08.2010 11:00 22,1 C 62 % 1015,2 hPa 0,0 l/m NW 0,83 h 697 W/m 4,7 km/h (1 Bft)
10.08.2010 12:00 23,4 C 53 % 1014,9 hPa 0,0 l/m SO 0,92 h 803 W/m 8,0 km/h (2 Bft)
10.08.2010 13:00 23,7 C 52 % 1014,6 hPa 0,0 l/m SW 0,58 h 682 W/m 9,4 km/h (2 Bft)
10.08.2010 14:00 23,7 C 51 % 1014,3 hPa 0,0 l/m W 0,50 h 466 W/m 7,1 km/h (2 Bft)
10.08.2010 15:00 24,9 C 45 % 1013,8 hPa 0,0 l/m S 1,00 h 744 W/m 8,2 km/h (2 Bft)
10.08.2010 16:00 24,6 C 46 % 1013,3 hPa 0,0 l/m S 0,67 h 410 W/m 5,6 km/h (1 Bft)
10.08.2010 17:00 24,3 C 49 % 1012,9 hPa 0,0 l/m W-SW 0,50 h 281 W/m 3,5 km/h (1 Bft)
10.08.2010 18:00 23,1 C 62 % 1012,7 hPa 0,0 l/m N 0,25 h 166 W/m 1,1 km/h (0 Bft)
10.08.2010 19:00 21,5 C 76 % 1012,6 hPa 0,0 l/m N 0,08 h 77 W/m 0,8 km/h (0 Bft)
10.08.2010 20:00 19,9 C 73 % 1012,8 hPa 0,0 l/m N 0,00 h 13 W/m 2,3 km/h (1 Bft)
10.08.2010 21:00 18,5 C 81 % 1013,2 hPa 0,0 l/m N 0,00 h 0 W/m 0,1 km/h (0 Bft)
10.08.2010 22:00 17,4 C 85 % 1013,5 hPa 0,0 l/m N-NW 0,00 h 0 W/m 0,7 km/h (0 Bft)
10.08.2010 23:00 17,0 C 84 % 1013,5 hPa 0,0 l/m N 0,00 h 0 W/m 0,1 km/h (0 Bft)
11.08.2010 00:00 16,5 C 86 % 1013,5 hPa 0,0 l/m N 0,00 h 0 W/m 0,0 km/h (0 Bft)
11.08.2010 01:00 16,2 C 88 % 1013,2 hPa 0,0 l/m N 0,00 h 0 W/m 0,0 km/h (0 Bft)
11.08.2010 02:00 16,1 C 89 % 1012,9 hPa 0,0 l/m N 0,00 h 0 W/m 0,0 km/h (0 Bft)
11.08.2010 03:00 16,1 C 91 % 1013,0 hPa 0,0 l/m N 0,00 h 0 W/m 0,0 km/h (0 Bft)
11.08.2010 04:00 16,1 C 91 % 1013,0 hPa 0,0 l/m N 0,00 h 0 W/m 0,0 km/h (0 Bft)
11.08.2010 05:00 15,8 C 91 % 1012,9 hPa 0,0 l/m N 0,00 h 0 W/m 0,0 km/h (0 Bft)
11.08.2010 06:00 15,8 C 92 % 1013,2 hPa 0,0 l/m N 0,00 h 17 W/m 0,0 km/h (0 Bft)
11.08.2010 07:00 16,1 C 93 % 1013,5 hPa 0,0 l/m N 0,00 h 48 W/m 0,0 km/h (0 Bft)
11.08.2010 08:00 17,5 C 89 % 1013,7 hPa 0,0 l/m SO 0,17 h 158 W/m 5,2 km/h (1 Bft)
11.08.2010 09:00 19,8 C 81 % 1013,7 hPa 0,0 l/m SW 0,50 h 342 W/m 11,6 km/h (2 Bft)
11.08.2010 10:00 21,1 C 78 % 1013,8 hPa 0,0 l/m S-SW 0,58 h 411 W/m 14,4 km/h (3 Bft)
11.08.2010 11:00 22,1 C 69 % 1013,6 hPa 0,0 l/m W 0,67 h 434 W/m 13,3 km/h (3 Bft)
11.08.2010 12:00 22,5 C 65 % 1013,7 hPa 0,0 l/m W 0,92 h 540 W/m 11,7 km/h (2 Bft)
11.08.2010 13:00 23,5 C 59 % 1013,4 hPa 0,0 l/m W 0,92 h 619 W/m 14,5 km/h (3 Bft)
11.08.2010 14:00 24,3 C 55 % 1013,0 hPa 0,0 l/m W-SW 0,92 h 796 W/m 17,3 km/h (3 Bft)
11.08.2010 15:00 24,9 C 51 % 1012,7 hPa 0,0 l/m W-SW 0,83 h 639 W/m 16,1 km/h (3 Bft)
11.08.2010 16:00 24,9 C 52 % 1012,3 hPa 0,0 l/m W 0,75 h 442 W/m 11,7 km/h (2 Bft)
11.08.2010 17:00 24,1 C 57 % 1012,0 hPa 0,0 l/m W-NW 0,25 h 209 W/m 5,9 km/h (2 Bft)
11.08.2010 18:00 23,3 C 64 % 1011,6 hPa 0,0 l/m W-SW 0,00 h 159 W/m 6,2 km/h (2 Bft)
11.08.2010 19:00 22,2 C 70 % 1011,5 hPa 0,0 l/m W-SW 0,08 h 79 W/m 4,1 km/h (1 Bft)
11.08.2010 20:00 20,5 C 76 % 1011,8 hPa 0,0 l/m W-SW 0,00 h 14 W/m 4,1 km/h (1 Bft)
11.08.2010 21:00 18,6 C 85 % 1012,0 hPa 0,0 l/m N 0,00 h 0 W/m 0,1 km/h (0 Bft)
11.08.2010 22:00 18,0 C 86 % 1012,0 hPa 0,0 l/m N-NW 0,00 h 0 W/m 4,3 km/h (1 Bft)
11.08.2010 23:00 17,5 C 88 % 1011,9 hPa 0,0 l/m N 0,00 h 0 W/m 2,5 km/h (1 Bft)
12.08.2010 00:00 17,2 C 91 % 1011,5 hPa 0,0 l/m N 0,00 h 0 W/m 0,8 km/h (0 Bft)
12.08.2010 01:00 17,2 C 92 % 1011,1 hPa 0,0 l/m N 0,00 h 0 W/m 0,9 km/h (0 Bft)
12.08.2010 02:00 17,2 C 92 % 1010,6 hPa 0,0 l/m N 0,00 h 0 W/m 0,9 km/h (0 Bft)
12.08.2010 03:00 16,9 C 92 % 1010,6 hPa 0,0 l/m NW 0,00 h 0 W/m 1,3 km/h (1 Bft)
12.08.2010 04:00 16,4 C 90 % 1010,5 hPa 0,0 l/m W-NW 0,00 h 0 W/m 4,6 km/h (1 Bft)
12.08.2010 05:00 16,0 C 94 % 1010,4 hPa 0,0 l/m SW 0,00 h 0 W/m 3,9 km/h (1 Bft)
12.08.2010 06:00 15,9 C 96 % 1010,3 hPa 0,0 l/m N 0,00 h 7 W/m 2,7 km/h (1 Bft)
12.08.2010 07:00 16,1 C 96 % 1010,1 hPa 0,6 l/m S-SW 0,00 h 20 W/m 4,8 km/h (1 Bft)
12.08.2010 08:00 16,3 C 97 % 1010,0 hPa 0,2 l/m SW 0,00 h 86 W/m 7,6 km/h (2 Bft)
12.08.2010 09:00 17,0 C 95 % 1009,9 hPa 0,0 l/m S-SW 0,00 h 178 W/m 6,7 km/h (2 Bft)
12.08.2010 10:00 17,8 C 91 % 1010,2 hPa 0,2 l/m W-SW 0,00 h 160 W/m 10,8 km/h (2 Bft)
12.08.2010 11:00 17,2 C 94 % 1010,4 hPa 2,6 l/m W-SW 0,00 h 142 W/m 6,8 km/h (2 Bft)
12.08.2010 12:00 17,8 C 95 % 1010,6 hPa 0,0 l/m S-SW 0,00 h 260 W/m 11,4 km/h (2 Bft)
12.08.2010 13:00 18,7 C 91 % 1010,8 hPa 0,0 l/m SW 0,33 h 334 W/m 10,6 km/h (2 Bft)
12.08.2010 14:00 19,4 C 83 % 1011,0 hPa 0,0 l/m W-SW 0,17 h 333 W/m 16,9 km/h (3 Bft)
12.08.2010 15:00 19,6 C 77 % 1011,2 hPa 0,0 l/m W 0,50 h 350 W/m 17,8 km/h (3 Bft)
12.08.2010 16:00 19,5 C 81 % 1011,5 hPa 0,0 l/m SW 0,25 h 287 W/m 19,3 km/h (3 Bft)
12.08.2010 17:00 18,4 C 89 % 1011,9 hPa 0,0 l/m SW 0,00 h 138 W/m 14,2 km/h (3 Bft)
12.08.2010 18:00 18,2 C 93 % 1012,1 hPa 0,8 l/m SW 0,08 h 94 W/m 11,5 km/h (2 Bft)
12.08.2010 19:00 16,8 C 94 % 1012,7 hPa 0,8 l/m SW 0,08 h 58 W/m 10,4 km/h (2 Bft)
12.08.2010 20:00 16,2 C 95 % 1013,4 hPa 0,0 l/m S 0,08 h 19 W/m 5,9 km/h (2 Bft)
12.08.2010 21:00 15,6 C 96 % 1014,0 hPa 0,0 l/m SW 0,00 h 0 W/m 6,3 km/h (2 Bft)
12.08.2010 22:00 15,3 C 97 % 1014,4 hPa 0,0 l/m S-SW 0,00 h 0 W/m 4,1 km/h (1 Bft)
12.08.2010 23:00 15,2 C 97 % 1014,5 hPa 0,0 l/m S-SW 0,00 h 0 W/m 6,6 km/h (2 Bft)
13.08.2010 00:00 15,1 C 96 % 1014,5 hPa 0,4 l/m S-SW 0,00 h 0 W/m 4,3 km/h (1 Bft)
13.08.2010 01:00 15,0 C 96 % 1014,4 hPa 0,4 l/m N 0,00 h 0 W/m 1,7 km/h (1 Bft)
13.08.2010 02:00 15,0 C 97 % 1014,3 hPa 0,0 l/m N 0,00 h 0 W/m 0,3 km/h (0 Bft)
13.08.2010 03:00 15,0 C 97 % 1014,2 hPa 0,0 l/m N 0,00 h 0 W/m 1,3 km/h (1 Bft)
13.08.2010 04:00 15,0 C 98 % 1014,1 hPa 0,0 l/m SW 0,00 h 0 W/m 4,9 km/h (1 Bft)
13.08.2010 05:00 14,9 C 98 % 1014,0 hPa 0,0 l/m SW 0,00 h 0 W/m 4,8 km/h (1 Bft)
13.08.2010 06:00 14,9 C 98 % 1013,8 hPa 0,0 l/m N 0,00 h 12 W/m 0,7 km/h (0 Bft)
13.08.2010 07:00 14,9 C 98 % 1013,9 hPa 0,0 l/m SW 0,00 h 18 W/m 1,5 km/h (1 Bft)
13.08.2010 08:00 14,9 C 98 % 1014,5 hPa 0,0 l/m N 0,00 h 47 W/m 2,9 km/h (1 Bft)
13.08.2010 09:00 15,3 C 97 % 1014,6 hPa 0,0 l/m W-SW 0,00 h 125 W/m 3,3 km/h (1 Bft)
13.08.2010 10:00 15,9 C 92 % 1014,6 hPa 0,0 l/m NW 0,00 h 172 W/m 5,9 km/h (2 Bft)
13.08.2010 11:00 16,6 C 88 % 1014,7 hPa 0,0 l/m N 0,00 h 246 W/m 6,4 km/h (2 Bft)
13.08.2010 12:00 16,7 C 87 % 1014,5 hPa 0,0 l/m N 0,00 h 177 W/m 4,3 km/h (1 Bft)
13.08.2010 13:00 17,6 C 83 % 1014,2 hPa 0,2 l/m N-NO 0,08 h 350 W/m 6,5 km/h (2 Bft)
13.08.2010 14:00 18,7 C 78 % 1013,9 hPa 0,0 l/m N-NO 0,17 h 380 W/m 6,4 km/h (2 Bft)
13.08.2010 15:00 18,6 C 78 % 1014,0 hPa 0,0 l/m N-NO 0,00 h 144 W/m 7,2 km/h (2 Bft)
13.08.2010 16:00 18,4 C 78 % 1014,2 hPa 0,0 l/m N 0,08 h 184 W/m 6,4 km/h (2 Bft)
13.08.2010 17:00 18,8 C 77 % 1014,2 hPa 0,0 l/m O 0,50 h 233 W/m 11,1 km/h (2 Bft)
13.08.2010 18:00 18,3 C 71 % 1014,2 hPa 0,0 l/m O-NO 0,58 h 254 W/m 11,1 km/h (2 Bft)
13.08.2010 19:00 17,9 C 69 % 1014,4 hPa 0,0 l/m SO 0,50 h 105 W/m 6,5 km/h (2 Bft)
13.08.2010 20:00 15,7 C 83 % 1014,5 hPa 0,0 l/m N 0,00 h 10 W/m 2,0 km/h (1 Bft)
13.08.2010 21:00 13,6 C 92 % 1014,9 hPa 0,0 l/m N 0,00 h 0 W/m 0,4 km/h (0 Bft)
13.08.2010 22:00 12,8 C 95 % 1014,9 hPa 0,0 l/m N 0,00 h 0 W/m 0,7 km/h (0 Bft)
13.08.2010 23:00 12,4 C 97 % 1014,9 hPa 0,0 l/m N 0,00 h 0 W/m 0,5 km/h (0 Bft)
14.08.2010 00:00 12,1 C 97 % 1014,9 hPa 0,0 l/m N 0,00 h 0 W/m 0,1 km/h (0 Bft)
14.08.2010 01:00 11,6 C 97 % 1014,8 hPa 0,0 l/m N 0,00 h 0 W/m 0,8 km/h (0 Bft)
14.08.2010 02:00 11,3 C 98 % 1014,6 hPa 0,0 l/m N 0,00 h 0 W/m 1,6 km/h (1 Bft)
14.08.2010 03:00 11,2 C 98 % 1014,5 hPa 0,0 l/m N 0,00 h 0 W/m 2,9 km/h (1 Bft)
14.08.2010 04:00 11,2 C 98 % 1014,3 hPa 0,0 l/m N-NW 0,00 h 0 W/m 4,8 km/h (1 Bft)
14.08.2010 05:00 10,7 C 98 % 1014,3 hPa 0,0 l/m N-NW 0,00 h 0 W/m 3,3 km/h (1 Bft)
14.08.2010 06:00 10,8 C 99 % 1014,5 hPa 0,0 l/m N-NW 0,00 h 14 W/m 4,4 km/h (1 Bft)
14.08.2010 07:00 11,1 C 99 % 1014,5 hPa 0,0 l/m N-NO 0,00 h 42 W/m 4,4 km/h (1 Bft)
14.08.2010 08:00 12,0 C 99 % 1014,9 hPa 0,0 l/m O-NO 0,00 h 116 W/m 6,5 km/h (2 Bft)
14.08.2010 09:00 13,3 C 98 % 1014,6 hPa 0,0 l/m O-NO 0,08 h 216 W/m 11,7 km/h (2 Bft)
14.08.2010 10:00 15,3 C 92 % 1014,3 hPa 0,0 l/m NO 0,25 h 321 W/m 14,4 km/h (3 Bft)
14.08.2010 11:00 16,2 C 86 % 1014,1 hPa 0,0 l/m O-NO 0,08 h 347 W/m 17,7 km/h (3 Bft)
14.08.2010 12:00 17,1 C 81 % 1014,1 hPa 0,0 l/m O-NO 0,33 h 420 W/m 20,2 km/h (4 Bft)
14.08.2010 13:00 17,6 C 78 % 1013,6 hPa 0,0 l/m O-NO 0,25 h 385 W/m 24,9 km/h (4 Bft)
14.08.2010 14:00 17,5 C 79 % 1013,0 hPa 0,0 l/m NO 0,00 h 293 W/m 22,1 km/h (4 Bft)
14.08.2010 15:00 17,9 C 77 % 1012,4 hPa 0,0 l/m O-NO 0,25 h 321 W/m 21,8 km/h (4 Bft)
14.08.2010 16:00 18,0 C 78 % 1011,9 hPa 0,0 l/m NO 0,00 h 130 W/m 18,4 km/h (3 Bft)
14.08.2010 17:00 18,2 C 80 % 1011,1 hPa 0,0 l/m O-NO 0,00 h 151 W/m 17,3 km/h (3 Bft)
14.08.2010 18:00 18,0 C 80 % 1010,4 hPa 0,0 l/m O-NO 0,00 h 59 W/m 18,9 km/h (3 Bft)
14.08.2010 19:00 17,5 C 82 % 1010,1 hPa 0,0 l/m NO 0,00 h 18 W/m 15,8 km/h (3 Bft)
14.08.2010 20:00 17,0 C 83 % 1009,2 hPa 0,0 l/m O-NO 0,00 h 5 W/m 20,6 km/h (4 Bft)
14.08.2010 21:00 16,2 C 88 % 1008,7 hPa 0,4 l/m O-NO 0,00 h 0 W/m 20,1 km/h (4 Bft)
14.08.2010 22:00 15,7 C 93 % 1007,9 hPa 1,0 l/m O-NO 0,00 h 0 W/m 21,2 km/h (4 Bft)
14.08.2010 23:00 15,4 C 95 % 1007,1 hPa 0,4 l/m NO 0,00 h 0 W/m 21,3 km/h (4 Bft)
15.08.2010 00:00 15,1 C 95 % 1006,8 hPa 0,2 l/m O-NO 0,00 h 0 W/m 15,7 km/h (3 Bft)
15.08.2010 01:00 15,0 C 95 % 1006,7 hPa 0,0 l/m NO 0,00 h 0 W/m 9,8 km/h (2 Bft)
15.08.2010 02:00 15,0 C 96 % 1006,5 hPa 0,0 l/m NO 0,00 h 0 W/m 7,9 km/h (2 Bft)
15.08.2010 03:00 15,0 C 96 % 1006,5 hPa 0,0 l/m O-NO 0,00 h 0 W/m 4,4 km/h (1 Bft)
15.08.2010 04:00 15,0 C 97 % 1006,3 hPa 0,0 l/m N 0,00 h 0 W/m 0,8 km/h (0 Bft)
15.08.2010 05:00 15,0 C 98 % 1006,4 hPa 0,0 l/m W 0,00 h 0 W/m 10,2 km/h (2 Bft)
15.08.2010 06:00 14,3 C 93 % 1007,1 hPa 0,0 l/m W 0,00 h 10 W/m 16,8 km/h (3 Bft)
15.08.2010 07:00 13,8 C 93 % 1007,8 hPa 0,0 l/m SW 0,00 h 52 W/m 7,8 km/h (2 Bft)
15.08.2010 08:00 14,4 C 90 % 1008,2 hPa 0,0 l/m W-SW 0,00 h 156 W/m 13,9 km/h (3 Bft)
15.08.2010 09:00 15,4 C 84 % 1008,2 hPa 0,0 l/m W 0,50 h 374 W/m 23,9 km/h (4 Bft)
15.08.2010 10:00 16,8 C 75 % 1008,5 hPa 0,0 l/m W-SW 0,83 h 491 W/m 36,3 km/h (5 Bft)
15.08.2010 11:00 16,9 C 73 % 1009,4 hPa 0,0 l/m W-SW 0,17 h 284 W/m 33,4 km/h (5 Bft)
15.08.2010 12:00 16,4 C 78 % 1010,2 hPa 0,0 l/m W-SW 0,00 h 243 W/m 23,1 km/h (4 Bft)
15.08.2010 13:00 16,8 C 76 % 1010,7 hPa 0,0 l/m W-SW 0,08 h 346 W/m 28,2 km/h (4 Bft)
15.08.2010 14:00 17,7 C 73 % 1010,7 hPa 0,0 l/m W-SW 0,50 h 586 W/m 31,9 km/h (5 Bft)
15.08.2010 15:00 18,3 C 69 % 1011,1 hPa 0,0 l/m W-SW 0,58 h 569 W/m 28,8 km/h (5 Bft)
15.08.2010 16:00 17,9 C 70 % 1010,8 hPa 0,0 l/m W-SW 0,67 h 499 W/m 27,6 km/h (4 Bft)
15.08.2010 17:00 18,0 C 66 % 1011,0 hPa 0,0 l/m W-SW 0,50 h 322 W/m 26,6 km/h (4 Bft)
15.08.2010 18:00 16,9 C 71 % 1011,6 hPa 0,0 l/m W-SW 0,00 h 91 W/m 20,4 km/h (4 Bft)
15.08.2010 19:00 14,9 C 91 % 1011,7 hPa 0,4 l/m SW 0,08 h 64 W/m 17,0 km/h (3 Bft)
15.08.2010 20:00 14,1 C 94 % 1012,1 hPa 0,0 l/m SW 0,17 h 20 W/m 17,7 km/h (3 Bft)
15.08.2010 21:00 13,5 C 95 % 1012,6 hPa 0,0 l/m W-SW 0,00 h 0 W/m 19,2 km/h (3 Bft)
15.08.2010 22:00 13,1 C 95 % 1012,6 hPa 0,0 l/m SW 0,00 h 0 W/m 17,2 km/h (3 Bft)
15.08.2010 23:00 12,5 C 94 % 1012,5 hPa 0,0 l/m SW 0,00 h 0 W/m 14,0 km/h (3 Bft)
Min-Datum _ 14.08.10 10.08.10 15.08.10 - - - - 09.08.10
_ Min-Zeit 05:20 15:55 02:45 - - - - 00:00
Minimum _ 10,7 C 41 % 1006,1 hPa - - - - 0,0 km/h (0 Bft)
Max-Datum _ 11.08.10 09.08.10 09.08.10 12.08.10 - 09.08.10 09.08.10 15.08.10
_ Max-Zeit 16:00 02:45 00:00 11:20 - 07:20 12:35 11:05
Maximum _ 25,4 C 99 % 1017,9 hPa 2,6 l/m - 0,08 h 1095 W/m 49,9 km/h
W-SW (6 Bft)
Durchschnitt _ 16,9 C 84 % 1013,0 hPa #8,6 l/m SW #31:50 h 269 W/m 7,7 km/h (2 Bft)